Time;durP1;ratioP1;P1;durP2;ratioP2;P2;SDS_P1;SDS_P2;PMS_P1;PMS_P2;Temp;Humidity;BMP_temperature;BMP_pressure;BME280_temperature;BME280_humidity;BME280_pressure;Samples;Min_cycle;Max_cycle;Signal;HPM_P1;HPM_P2
2022/11/01 00:00:15;;;;;;;13.15;3.78;;;;;;;2.69;100.00;100187.66;5174071;27;20050;-47
2022/11/01 00:02:42;;;;;;;9.75;3.92;;;;;;;2.67;100.00;100191.78;5174069;27;20050;-47
2022/11/01 00:05:09;;;;;;;14.73;3.85;;;;;;;2.69;100.00;100184.16;5174073;27;20140;-47
2022/11/01 00:07:35;;;;;;;12.20;4.40;;;;;;;2.74;100.00;100179.50;5174040;27;20061;-47
2022/11/01 00:10:01;;;;;;;11.93;4.25;;;;;;;2.73;100.00;100186.03;5174080;27;20073;-49
2022/11/01 00:12:29;;;;;;;8.48;3.63;;;;;;;2.78;100.00;100177.81;5173988;27;20050;-48
2022/11/01 00:14:55;;;;;;;11.13;3.75;;;;;;;2.77;100.00;100181.63;5174034;27;20073;-47
2022/11/01 00:17:22;;;;;;;11.55;4.60;;;;;;;2.77;100.00;100175.41;5173864;27;20117;-48
2022/11/01 00:19:49;;;;;;;13.18;3.55;;;;;;;2.74;100.00;100178.69;5173824;27;20088;-48
2022/11/01 00:22:15;;;;;;;6.10;3.75;;;;;;;2.78;100.00;100174.31;5173828;27;20428;-48
2022/11/01 00:24:41;;;;;;;6.13;3.55;;;;;;;2.84;100.00;100181.28;5173756;27;20076;-48
2022/11/01 00:27:08;;;;;;;9.15;4.03;;;;;;;2.86;100.00;100172.84;5173518;27;20557;-47
2022/11/01 00:29:34;;;;;;;9.88;3.80;;;;;;;2.87;100.00;100172.59;5173606;27;20046;-47
2022/11/01 00:32:00;;;;;;;16.13;4.20;;;;;;;2.93;100.00;100167.91;5173774;27;20186;-49
2022/11/01 00:34:26;;;;;;;10.75;3.08;;;;;;;2.95;100.00;100169.22;5173705;27;20048;-48
2022/11/01 00:36:53;;;;;;;9.23;3.78;;;;;;;2.96;100.00;100161.91;5173682;27;20054;-47
2022/11/01 00:39:20;;;;;;;8.43;4.00;;;;;;;2.91;100.00;100162.78;5173736;27;20077;-47
2022/11/01 00:41:46;;;;;;;9.60;3.53;;;;;;;3.01;100.00;100162.66;5173555;27;20050;-48
2022/11/01 00:44:12;;;;;;;9.98;3.53;;;;;;;2.97;100.00;100153.50;5173715;27;20534;-47
2022/11/01 00:46:39;;;;;;;10.05;3.65;;;;;;;2.97;100.00;100153.50;5173703;27;20142;-47
2022/11/01 00:49:05;;;;;;;12.88;3.95;;;;;;;2.98;100.00;100149.69;5173540;27;20169;-48
2022/11/01 00:51:31;;;;;;;7.97;3.90;;;;;;;2.95;100.00;100144.84;5173282;27;20106;-50
2022/11/01 00:53:58;;;;;;;9.75;3.67;;;;;;;2.97;100.00;100150.78;5173701;27;20450;-49
2022/11/01 00:56:24;;;;;;;7.65;3.15;;;;;;;2.94;100.00;100156.00;5173270;27;20529;-48
2022/11/01 00:58:51;;;;;;;7.97;3.40;;;;;;;2.92;100.00;100152.75;5173220;27;20046;-48
2022/11/01 01:01:17;;;;;;;9.20;3.65;;;;;;;2.91;100.00;100157.38;5172786;27;20529;-50
2022/11/01 01:03:43;;;;;;;7.20;2.83;;;;;;;2.94;100.00;100161.41;5173292;27;20133;-48
2022/11/01 01:06:10;;;;;;;12.38;4.22;;;;;;;3.01;100.00;100154.53;5173169;27;20106;-51
2022/11/01 01:08:36;;;;;;;11.10;4.03;;;;;;;3.09;100.00;100155.78;5173034;27;20057;-49
2022/11/01 01:11:03;;;;;;;10.45;3.63;;;;;;;3.13;100.00;100154.09;5173069;27;20050;-53
2022/11/01 01:13:30;;;;;;;6.80;3.85;;;;;;;3.11;100.00;100156.31;5172945;27;20046;-50
2022/11/01 01:15:56;;;;;;;10.13;3.97;;;;;;;3.04;100.00;100153.94;5173258;27;20057;-48
2022/11/01 01:18:22;;;;;;;12.35;4.22;;;;;;;3.16;100.00;100147.28;5172878;27;20098;-51
2022/11/01 01:20:49;;;;;;;8.50;3.10;;;;;;;3.16;100.00;100142.69;5172757;27;20535;-48
2022/11/01 01:23:15;;;;;;;9.25;4.00;;;;;;;3.13;100.00;100135.13;5172806;27;20128;-48
2022/11/01 01:25:42;;;;;;;5.80;3.83;;;;;;;3.17;100.00;100141.59;5173152;27;20513;-50
2022/11/01 01:28:09;;;;;;;17.65;3.85;;;;;;;3.23;100.00;100140.44;5172649;27;20487;-48
2022/11/01 01:30:39;;;;;;;14.68;3.97;;;;;;;3.20;100.00;100134.75;5172605;27;20046;-47
2022/11/01 01:33:06;;;;;;;8.75;4.03;;;;;;;3.07;100.00;100136.31;5172872;27;20050;-48
2022/11/01 01:35:32;;;;;;;10.90;3.72;;;;;;;3.20;100.00;100130.19;5172608;27;20145;-47
2022/11/01 01:37:58;;;;;;;12.82;3.55;;;;;;;3.16;100.00;100128.31;5172693;27;20046;-48
2022/11/01 01:40:24;;;;;;;10.73;3.65;;;;;;;3.18;100.00;100136.97;5172594;27;20042;-48
2022/11/01 01:42:51;;;;;;;15.85;4.40;;;;;;;3.15;100.00;100143.78;5172599;27;20050;-48
2022/11/01 01:45:28;;;;;;;8.13;3.88;;;;;;;3.19;100.00;100133.97;5172530;27;20508;-49
2022/11/01 01:47:58;;;;;;;10.23;3.75;;;;;;;3.27;100.00;100146.06;5172697;27;20050;-49
2022/11/01 01:50:29;;;;;;;8.63;4.28;;;;;;;3.21;100.00;100137.19;5172333;27;20126;-49
2022/11/01 01:53:01;;;;;;;9.15;4.57;;;;;;;3.22;100.00;100143.41;5172298;27;20145;-48
2022/11/01 01:55:31;;;;;;;11.35;3.85;;;;;;;3.21;100.00;100137.19;5172176;27;20102;-47
2022/11/01 01:57:58;;;;;;;7.00;3.83;;;;;;;3.08;100.00;100135.22;5172294;27;20050;-48
2022/11/01 02:00:25;;;;;;;9.02;4.47;;;;;;;3.22;100.00;100146.13;5172209;27;20505;-47
2022/11/01 02:02:51;;;;;;;9.57;3.92;;;;;;;3.21;100.00;100142.63;5172154;27;20508;-48
2022/11/01 02:05:25;;;;;;;11.38;4.10;;;;;;;3.15;100.00;100132.13;5172470;27;20046;-48
2022/11/01 02:07:52;;;;;;;7.20;4.05;;;;;;;3.19;100.00;100135.88;5172298;27;20054;-47
2022/11/01 02:10:20;;;;;;;8.48;3.90;;;;;;;3.16;100.00;100129.13;5172474;27;20050;-48
2022/11/01 02:12:48;;;;;;;9.95;3.97;;;;;;;3.13;100.00;100134.31;5174929;27;20069;-47
2022/11/01 02:15:16;;;;;;;10.07;4.22;;;;;;;3.15;100.00;100126.72;5175854;27;20129;-48
2022/11/01 02:17:56;;;;;;;7.68;3.90;;;;;;;3.11;100.00;100129.22;5175574;27;20061;-47
2022/11/01 02:20:55;;;;;;;14.88;4.35;;;;;;;3.04;100.00;100129.56;5175996;27;20060;-47
2022/11/01 02:23:50;;;;;;;15.85;4.97;;;;;;;2.98;100.00;100127.22;5172484;27;20094;-47
2022/11/01 02:26:47;;;;;;;12.80;4.28;;;;;;;2.97;100.00;100131.03;5175928;27;20053;-47
2022/11/01 02:29:24;;;;;;;7.93;4.13;;;;;;;2.82;100.00;100130.09;5165021;27;20050;-48
2022/11/01 02:32:14;;;;;;;10.40;5.25;;;;;;;2.74;100.00;100138.88;5175674;27;20046;-47
2022/11/01 02:34:46;;;;;;;11.25;4.85;;;;;;;2.74;100.00;100141.59;5175550;27;20102;-47
2022/11/01 02:37:19;;;;;;;11.65;4.47;;;;;;;2.47;100.00;100133.25;5175583;27;20050;-47
2022/11/01 02:39:50;;;;;;;13.85;5.25;;;;;;;2.59;100.00;100131.72;5175475;27;20485;-49
2022/11/01 02:42:22;;;;;;;16.15;5.22;;;;;;;2.61;100.00;100142.28;5175504;27;20046;-47
2022/11/01 02:44:54;;;;;;;15.82;5.75;;;;;;;2.61;100.00;100133.34;5175239;27;20056;-48
2022/11/01 02:47:22;;;;;;;14.70;5.70;;;;;;;2.48;100.00;100132.94;5175325;27;20137;-47
2022/11/01 02:49:54;;;;;;;14.50;5.85;;;;;;;2.52;100.00;100120.44;5175293;27;20081;-49
2022/11/01 02:52:23;;;;;;;15.68;5.53;;;;;;;2.59;100.00;100122.81;5175284;27;20054;-48
2022/11/01 02:54:53;;;;;;;17.95;6.07;;;;;;;2.62;100.00;100124.94;5175496;27;20136;-48
2022/11/01 02:57:28;;;;;;;11.45;5.93;;;;;;;2.65;100.00;100127.06;5175148;27;20584;-47
2022/11/01 03:00:01;;;;;;;11.68;5.25;;;;;;;2.55;100.00;100127.97;5175400;27;20047;-50
2022/11/01 03:02:38;;;;;;;17.00;6.22;;;;;;;2.66;100.00;100127.88;5174844;27;20470;-50
2022/11/01 03:05:07;;;;;;;15.68;6.55;;;;;;;2.70;100.00;100120.78;5175081;27;20458;-49
2022/11/01 03:07:33;;;;;;;19.70;7.07;;;;;;;2.80;100.00;100120.69;5174913;27;20050;-50
2022/11/01 03:10:00;;;;;;;20.45;7.05;;;;;;;2.83;100.00;100118.19;5175302;27;20083;-49
2022/11/01 03:12:32;;;;;;;13.15;6.65;;;;;;;2.90;100.00;100130.56;5174899;27;20517;-51
2022/11/01 03:15:06;;;;;;;16.70;7.53;;;;;;;2.85;100.00;100128.72;5174833;27;20049;-48
2022/11/01 03:17:40;;;;;;;19.52;7.30;;;;;;;2.95;100.00;100127.78;5175275;27;20416;-49
2022/11/01 03:20:14;;;;;;;14.30;6.90;;;;;;;3.07;100.00;100130.91;5174820;27;20050;-50
2022/11/01 03:22:42;;;;;;;17.80;6.63;;;;;;;2.94;100.00;100139.75;5174817;27;20050;-47
2022/11/01 03:27:58;;;;;;;12.95;7.07;;;;;;;2.97;100.00;100136.44;5173519;27;20050;-47
2022/11/01 03:30:24;;;;;;;15.80;7.40;;;;;;;3.01;100.00;100135.56;5174614;27;20057;-50
2022/11/01 03:32:54;;;;;;;21.10;7.90;;;;;;;3.01;100.00;100132.84;5174580;27;20050;-48
2022/11/01 03:35:24;;;;;;;19.00;9.15;;;;;;;2.97;100.00;100136.44;5174806;27;20523;-49
2022/11/01 03:37:54;;;;;;;20.23;9.20;;;;;;;3.01;100.00;100129.34;5174652;27;20447;-48
2022/11/01 03:40:23;;;;;;;24.73;9.82;;;;;;;2.95;100.00;100130.50;5174454;27;20137;-47
2022/11/01 03:42:53;;;;;;;34.75;14.65;;;;;;;2.85;100.00;100128.72;5174281;27;20082;-48
2022/11/01 03:45:23;;;;;;;24.75;9.75;;;;;;;2.92;100.00;100133.78;5174925;27;20046;-48
2022/11/01 03:47:50;;;;;;;21.38;9.45;;;;;;;2.83;100.00;100126.31;5174260;27;20068;-49
2022/11/01 03:50:20;;;;;;;22.48;8.82;;;;;;;2.75;100.00;100123.44;5174606;27;20058;-48
2022/11/01 03:52:47;;;;;;;25.13;10.02;;;;;;;2.75;100.00;100140.47;5174251;27;20490;-49
2022/11/01 03:55:20;;;;;;;29.00;10.23;;;;;;;2.80;100.00;100142.34;5174327;27;20428;-47
2022/11/01 03:57:47;;;;;;;25.13;10.93;;;;;;;2.72;100.00;100130.22;5174520;27;20398;-48
2022/11/01 04:00:16;;;;;;;22.35;10.57;;;;;;;2.54;100.00;100131.78;5174168;27;20057;-48
2022/11/01 04:02:43;;;;;;;35.58;12.75;;;;;;;2.81;100.00;100128.50;5174175;27;20046;-48
2022/11/01 04:05:10;;;;;;;37.05;16.13;;;;;;;2.75;100.00;100124.25;5173982;27;20505;-47
2022/11/01 04:07:37;;;;;;;49.42;18.15;;;;;;;2.83;100.00;100123.63;5174063;27;20050;-48
2022/11/01 04:10:04;;;;;;;40.95;17.75;;;;;;;2.95;100.00;100128.59;5173836;27;20057;-48
2022/11/01 04:12:30;;;;;;;48.40;18.30;;;;;;;3.01;100.00;100132.06;5174004;27;20046;-47
2022/11/01 04:20:32;;;;;;;41.53;15.50;;;;;;;3.08;100.00;100127.09;5174138;27;20050;-47
2022/11/01 04:22:59;;;;;;;47.22;18.30;;;;;;;2.89;100.00;100129.75;5173893;27;20046;-48
2022/11/01 04:25:25;;;;;;;45.78;20.15;;;;;;;2.89;100.00;100128.94;5174016;27;20046;-47
2022/11/01 04:27:51;;;;;;;51.58;22.48;;;;;;;3.08;100.00;100126.28;5173846;27;20065;-47
2022/11/01 04:30:17;;;;;;;66.63;24.77;;;;;;;3.15;100.00;100121.31;5174051;27;20046;-47
2022/11/01 04:32:44;;;;;;;62.55;23.80;;;;;;;3.11;100.00;100112.16;5173504;27;20050;-48
2022/11/01 04:35:11;;;;;;;73.25;29.30;;;;;;;3.14;100.00;100098.81;5172562;27;20080;-49
2022/11/01 04:37:38;;;;;;;73.57;27.88;;;;;;;3.23;100.00;100094.38;5173354;27;20046;-50
2022/11/01 04:40:06;;;;;;;65.03;26.75;;;;;;;3.30;100.00;100097.50;5173662;27;20099;-47
2022/11/01 04:42:34;;;;;;;64.60;24.67;;;;;;;3.30;100.00;100088.59;5173612;27;20061;-51
2022/11/01 04:45:00;;;;;;;63.13;23.15;;;;;;;3.33;100.00;100095.28;5173604;27;20042;-49
2022/11/01 04:47:27;;;;;;;58.28;22.17;;;;;;;3.44;100.00;100096.78;5173719;27;20050;-48
2022/11/01 04:49:53;;;;;;;51.65;20.00;;;;;;;3.44;100.00;100097.56;5173263;27;20081;-48
2022/11/01 04:52:19;;;;;;;62.15;22.83;;;;;;;3.48;100.00;100101.31;5173480;27;20502;-48
2022/11/01 04:54:46;;;;;;;58.65;21.05;;;;;;;3.49;100.00;100094.78;5172885;27;20046;-47
2022/11/01 04:57:21;;;;;;;60.35;21.83;;;;;;;3.42;100.00;100093.53;5173366;27;20425;-49
2022/11/01 04:59:48;;;;;;;60.92;21.75;;;;;;;3.32;100.00;100090.97;5173063;27;20046;-48
2022/11/01 05:02:14;;;;;;;56.10;21.25;;;;;;;3.50;100.00;100101.03;5173120;27;20053;-47
2022/11/01 05:04:41;;;;;;;55.05;21.40;;;;;;;3.49;100.00;100115.66;5173098;27;20054;-47
2022/11/01 05:07:07;;;;;;;50.80;20.58;;;;;;;3.54;100.00;100108.25;5172773;27;20050;-49
2022/11/01 05:09:33;;;;;;;47.78;20.55;;;;;;;3.64;100.00;100104.59;5173187;27;20050;-49
2022/11/01 05:12:00;;;;;;;48.92;19.50;;;;;;;3.67;100.00;100089.63;5172870;27;20136;-48
2022/11/01 05:14:26;;;;;;;58.22;21.27;;;;;;;3.66;100.00;100082.59;5173118;27;20114;-52
2022/11/01 05:16:55;;;;;;;62.65;22.65;;;;;;;3.93;100.00;100093.53;5172833;27;20054;-54
2022/11/01 05:19:21;;;;;;;56.67;20.55;;;;;;;3.89;100.00;100106.06;5172953;27;20113;-51
2022/11/01 05:21:47;;;;;;;50.05;20.52;;;;;;;4.00;100.00;100093.16;5172678;27;20043;-53
2022/11/01 05:24:15;;;;;;;63.25;20.35;;;;;;;3.90;100.00;100087.88;5172711;27;20057;-51
2022/11/01 05:26:41;;;;;;;51.13;19.58;;;;;;;4.18;100.00;100094.97;5172524;27;20046;-54
2022/11/01 05:29:08;;;;;;;54.95;18.63;;;;;;;4.20;100.00;100103.63;5172515;27;20075;-53
2022/11/01 05:31:34;;;;;;;48.22;18.65;;;;;;;4.23;100.00;100108.47;5172801;27;20094;-54
2022/11/01 05:34:00;;;;;;;63.67;21.70;;;;;;;4.39;100.00;100113.59;5172997;27;20102;-57
2022/11/01 05:36:27;;;;;;;63.47;19.85;;;;;;;4.43;100.00;100101.03;5173120;27;20053;-57
2022/11/01 05:38:55;;;;;;;44.85;19.95;;;;;;;4.54;100.00;100115.22;5172863;27;20099;-56
2022/11/01 05:41:22;;;;;;;54.30;22.20;;;;;;;4.66;100.00;100107.38;5172966;27;20046;-58
2022/11/01 05:43:48;;;;;;;58.75;21.60;;;;;;;4.66;100.00;100097.31;5172630;27;20134;-50
2022/11/01 05:46:15;;;;;;;72.93;26.40;;;;;;;4.74;100.00;100090.38;5172590;27;20050;-57
2022/11/01 05:48:41;;;;;;;80.20;25.48;;;;;;;4.64;100.00;100101.44;5172401;27;20050;-59
2022/11/01 05:51:08;;;;;;;65.22;25.85;;;;;;;4.63;100.00;100097.09;5172594;27;20536;-57
2022/11/01 05:53:34;;;;;;;79.35;28.27;;;;;;;4.81;100.00;100111.69;5172075;27;20084;-46
2022/11/01 05:56:01;;;;;;;69.50;26.65;;;;;;;5.05;100.00;100112.25;5172086;27;20439;-52
2022/11/01 05:58:27;;;;;;;66.47;27.35;;;;;;;5.08;100.00;100089.91;5171967;27;20046;-54
2022/11/01 06:00:56;;;;;;;73.00;28.08;;;;;;;5.09;100.00;100098.88;5172269;27;20054;-55
2022/11/01 06:03:23;;;;;;;55.17;23.80;;;;;;;5.25;100.00;100100.16;5172646;27;20098;-52
2022/11/01 06:05:50;;;;;;;47.45;19.75;;;;;;;5.25;100.00;100080.31;5172118;27;20067;-51
2022/11/01 06:08:16;;;;;;;30.75;12.45;;;;;;;5.18;100.00;100067.13;5171949;27;20057;-51
2022/11/01 06:10:42;;;;;;;34.00;9.15;;;;;;;5.00;100.00;100057.22;5172162;27;20074;-54
2022/11/01 06:13:09;;;;;;;24.42;8.18;;;;;;;5.60;100.00;100029.72;5171905;27;20149;-54
2022/11/01 06:15:35;;;;;;;29.55;10.15;;;;;;;5.89;100.00;99983.75;5171844;27;20074;-53
2022/11/01 06:18:02;;;;;;;34.60;9.80;;;;;;;6.17;100.00;99901.91;5171950;27;20142;-53
2022/11/01 06:20:30;;;;;;;40.80;14.15;;;;;;;6.24;100.00;99817.84;5171763;27;20056;-54
2022/11/01 06:22:57;;;;;;;33.72;13.00;;;;;;;6.36;100.00;99771.72;5171621;27;20057;-49
2022/11/01 06:25:24;;;;;;;41.58;11.88;;;;;;;6.39;100.00;99723.94;5171632;27;20056;-50
2022/11/01 06:27:50;;;;;;;41.10;11.75;;;;;;;6.53;100.00;99588.38;5171487;27;20050;-58
2022/11/01 06:30:17;;;;;;;33.45;11.70;;;;;;;6.43;100.00;99517.94;5171852;27;20096;-53
2022/11/01 06:32:43;;;;;;;33.70;11.45;;;;;;;6.62;100.00;99465.75;5171597;27;20424;-52
2022/11/01 06:35:10;;;;;;;37.30;11.73;;;;;;;7.06;100.00;99404.31;5171743;27;20050;-50
2022/11/01 06:37:37;;;;;;;40.13;12.00;;;;;;;6.93;100.00;99340.00;5171538;27;20188;-49
2022/11/01 06:40:05;;;;;;;38.80;12.88;;;;;;;6.80;100.00;99346.53;5171498;27;20054;-51
2022/11/01 06:42:32;;;;;;;28.25;9.80;;;;;;;6.78;100.00;99280.66;5171179;27;20155;-53
2022/11/01 06:44:58;;;;;;;18.52;7.22;;;;;;;6.50;100.00;99255.97;5171771;27;20133;-53
2022/11/01 06:47:24;;;;;;;19.73;6.82;;;;;;;6.78;100.00;99213.34;5171006;27;20071;-53
2022/11/01 06:49:51;;;;;;;16.90;7.13;;;;;;;6.95;100.00;99160.56;5171680;27;20082;-52
2022/11/01 06:52:17;;;;;;;23.10;7.40;;;;;;;7.14;100.00;99066.50;5171474;27;20046;-54
2022/11/01 06:54:44;;;;;;;24.45;7.43;;;;;;;7.16;100.00;99009.69;5171386;27;20046;-52
2022/11/01 06:57:10;;;;;;;23.80;7.82;;;;;;;7.16;100.00;98953.22;5171776;27;20129;-52
2022/11/01 06:59:36;;;;;;;19.33;7.57;;;;;;;7.36;100.00;98967.00;5175058;27;20102;-50
2022/11/01 07:02:03;;;;;;;19.17;8.38;;;;;;;7.27;100.00;98962.50;5175098;27;20053;-51
2022/11/01 07:04:29;;;;;;;25.98;8.10;;;;;;;6.93;100.00;98955.72;5174969;27;20084;-50
2022/11/01 07:06:55;;;;;;;28.90;8.52;;;;;;;6.99;100.00;98997.13;5174802;27;20137;-52
2022/11/01 07:09:22;;;;;;;37.35;8.38;;;;;;;7.28;100.00;98977.72;5174608;27;20066;-53
2022/11/01 07:11:49;;;;;;;24.73;6.78;;;;;;;6.95;100.00;98909.81;5175113;27;20042;-51
2022/11/01 07:14:15;;;;;;;19.92;7.18;;;;;;;7.22;100.00;98910.16;5174757;27;20063;-51
2022/11/01 07:16:41;;;;;;;25.63;7.13;;;;;;;7.21;100.00;98887.56;5174837;27;20050;-52
2022/11/01 07:19:08;;;;;;;16.00;5.90;;;;;;;7.01;100.00;98845.75;5174685;27;20050;-54
2022/11/01 07:21:34;;;;;;;33.17;6.03;;;;;;;7.08;100.00;98832.31;5174581;27;20141;-51
2022/11/01 07:24:01;;;;;;;24.02;7.30;;;;;;;7.30;100.00;98846.50;5174549;27;20054;-54
2022/11/01 07:26:27;;;;;;;25.40;6.93;;;;;;;6.78;100.00;98818.25;5174392;27;20092;-52
2022/11/01 07:28:54;;;;;;;22.30;7.00;;;;;;;7.55;100.00;98815.16;5174715;27;20049;-50
2022/11/01 07:31:20;;;;;;;21.40;7.05;;;;;;;7.40;100.00;98791.44;5174613;27;20046;-50
2022/11/01 07:33:46;;;;;;;29.58;7.82;;;;;;;7.67;100.00;98762.44;5174663;27;20046;-52
2022/11/01 07:36:13;;;;;;;22.40;8.60;;;;;;;7.72;100.00;98789.44;5174210;27;20050;-53
2022/11/01 07:38:39;;;;;;;25.38;8.25;;;;;;;7.74;100.00;98770.78;5174538;27;20042;-52
2022/11/01 07:41:05;;;;;;;26.88;7.78;;;;;;;7.31;100.00;98758.09;5174397;27;20477;-54
2022/11/01 07:43:34;;;;;;;29.52;8.57;;;;;;;7.35;100.00;98783.50;5174472;27;20090;-53
2022/11/01 07:46:03;;;;;;;29.30;8.80;;;;;;;7.17;100.00;98768.66;5174534;27;20065;-52
2022/11/01 07:48:29;;;;;;;20.25;8.48;;;;;;;7.81;100.00;98767.44;5174085;27;20046;-54
2022/11/01 07:50:56;;;;;;;31.75;7.57;;;;;;;7.86;100.00;98739.06;5174020;27;20050;-54
2022/11/01 07:53:22;;;;;;;19.38;7.00;;;;;;;7.58;100.00;98701.03;5174224;27;20050;-52
2022/11/01 07:55:48;;;;;;;30.60;8.30;;;;;;;7.93;100.00;98690.09;5174324;27;20094;-53
2022/11/01 07:58:16;;;;;;;19.50;7.35;;;;;;;7.69;100.00;98696.59;5174133;27;20132;-52
2022/11/01 08:00:43;;;;;;;24.58;7.32;;;;;;;7.66;100.00;98662.63;5174001;27;20141;-54
2022/11/01 08:03:12;;;;;;;24.00;7.32;;;;;;;7.93;100.00;98671.78;5173812;27;20171;-51
2022/11/01 08:05:39;;;;;;;31.83;9.25;;;;;;;7.86;100.00;98660.72;5174083;27;20083;-52
2022/11/01 08:08:06;;;;;;;19.23;6.82;;;;;;;7.52;100.00;98652.22;5173790;27;20050;-53
2022/11/01 08:10:33;;;;;;;19.02;7.18;;;;;;;7.59;100.00;98639.88;5172417;27;20050;-55
2022/11/01 08:13:01;;;;;;;18.50;7.45;;;;;;;8.00;100.00;98676.59;5173925;27;20129;-53
2022/11/01 08:15:28;;;;;;;23.48;8.65;;;;;;;8.43;100.00;98642.75;5173621;27;20050;-51
2022/11/01 08:17:55;;;;;;;19.70;6.35;;;;;;;8.18;100.00;98622.34;5173697;27;20054;-53
2022/11/01 08:20:22;;;;;;;24.65;6.43;;;;;;;8.43;100.00;98634.53;5173474;27;20057;-54
2022/11/01 08:22:49;;;;;;;20.33;6.93;;;;;;;8.13;100.00;98648.00;5173794;27;20046;-54
2022/11/01 08:25:15;;;;;;;20.52;6.53;;;;;;;8.14;100.00;98635.94;5173270;27;20052;-55
2022/11/01 08:27:41;;;;;;;25.40;7.25;;;;;;;8.11;100.00;98644.06;5173675;27;20057;-54
2022/11/01 08:30:09;;;;;;;28.85;6.68;;;;;;;7.78;100.00;98642.63;5173421;27;20497;-52
2022/11/01 08:32:36;;;;;;;18.20;6.85;;;;;;;7.63;100.00;98662.56;5173674;27;20053;-55
2022/11/01 08:35:02;;;;;;;21.85;6.30;;;;;;;8.01;100.00;98656.34;5173243;27;20056;-56
2022/11/01 08:37:29;;;;;;;16.17;5.53;;;;;;;7.55;100.00;98653.44;5173225;27;20141;-54
2022/11/01 08:39:55;;;;;;;33.22;6.47;;;;;;;8.12;100.00;98657.31;5173317;27;20505;-55
2022/11/01 08:42:22;;;;;;;15.52;5.85;;;;;;;7.66;100.00;98648.19;5173493;27;20458;-56
2022/11/01 08:44:48;;;;;;;11.20;5.25;;;;;;;8.23;100.00;98646.59;5173216;27;20057;-53
2022/11/01 08:47:14;;;;;;;18.15;7.15;;;;;;;8.27;100.00;98619.38;5172971;27;20057;-55
2022/11/01 08:49:41;;;;;;;29.38;8.98;;;;;;;8.57;100.00;98612.16;5173255;27;20417;-55
2022/11/01 08:52:07;;;;;;;24.13;8.40;;;;;;;8.54;100.00;98610.13;5173414;27;20047;-54
2022/11/01 08:54:34;;;;;;;21.40;8.25;;;;;;;7.93;100.00;98603.56;5173737;27;20390;-55
2022/11/01 08:57:01;;;;;;;15.77;7.30;;;;;;;7.64;100.00;98615.84;5173233;27;20085;-51
2022/11/01 08:59:28;;;;;;;23.38;7.38;;;;;;;8.09;100.00;98619.81;5173635;27;20454;-53
2022/11/01 09:01:54;;;;;;;21.75;6.95;;;;;;;7.98;100.00;98616.13;5173173;27;20085;-55
2022/11/01 09:04:20;;;;;;;20.73;7.38;;;;;;;8.08;100.00;98614.75;5173367;27;20046;-55
2022/11/01 09:06:47;;;;;;;18.60;5.88;;;;;;;8.62;100.00;98619.22;5172858;27;20072;-55
2022/11/01 09:09:13;;;;;;;16.30;6.43;;;;;;;8.29;100.00;98609.66;5172929;27;20053;-55
2022/11/01 09:11:40;;;;;;;19.15;7.38;;;;;;;8.86;100.00;98605.19;5172775;27;20046;-52
2022/11/01 09:14:06;;;;;;;16.80;8.07;;;;;;;8.74;100.00;98602.66;5172646;27;20052;-54
2022/11/01 09:16:33;;;;;;;14.25;6.30;;;;;;;8.81;100.00;98602.78;5172995;27;20478;-55
2022/11/01 09:19:00;;;;;;;23.85;7.03;;;;;;;8.74;100.00;98593.69;5172973;27;20146;-55
2022/11/01 09:21:27;;;;;;;15.02;6.20;;;;;;;8.70;100.00;98593.63;5172342;27;20046;-54
2022/11/01 09:23:53;;;;;;;21.05;5.97;;;;;;;8.74;100.00;98593.69;5172502;27;20445;-55
2022/11/01 09:26:20;;;;;;;17.38;6.38;;;;;;;8.60;100.00;98588.78;5172757;27;20046;-55
2022/11/01 09:28:47;;;;;;;21.10;5.82;;;;;;;8.91;100.00;98588.47;5172422;27;20054;-52
2022/11/01 09:31:13;;;;;;;33.22;5.88;;;;;;;9.01;100.00;98589.00;5172836;27;20056;-55
2022/11/01 09:33:39;;;;;;;20.75;4.95;;;;;;;8.54;100.00;98585.56;5172505;27;20046;-55
2022/11/01 09:36:06;;;;;;;14.73;4.45;;;;;;;8.30;100.00;98580.41;5172495;27;20179;-55
2022/11/01 09:38:34;;;;;;;16.92;4.97;;;;;;;8.59;100.00;98587.97;5172225;27;20056;-55
2022/11/01 09:41:06;;;;;;;15.23;5.15;;;;;;;8.40;100.00;98582.59;5172159;27;20042;-54
2022/11/01 09:43:36;;;;;;;18.35;4.78;;;;;;;8.74;100.00;98586.25;5172380;27;20083;-55
2022/11/01 09:46:05;;;;;;;11.57;4.50;;;;;;;8.77;100.00;98582.78;5172138;27;20106;-52
2022/11/01 09:48:34;;;;;;;17.35;4.78;;;;;;;8.63;100.00;98574.34;5172500;27;20420;-52
2022/11/01 09:51:03;;;;;;;22.05;5.38;;;;;;;8.58;100.00;98567.25;5172147;27;20069;-55
2022/11/01 09:53:30;;;;;;;16.58;5.00;;;;;;;8.81;100.00;98589.09;5172425;27;20046;-52
2022/11/01 09:56:03;;;;;;;13.77;5.60;;;;;;;8.25;100.00;98582.28;5171884;27;20478;-54
2022/11/01 09:58:41;;;;;;;16.90;5.40;;;;;;;8.49;100.00;98564.00;5172250;27;20050;-51
2022/11/01 10:01:24;;;;;;;14.73;5.47;;;;;;;8.45;100.00;98571.34;5172002;27;20505;-50
2022/11/01 10:04:06;;;;;;;14.25;6.00;;;;;;;8.89;100.00;98573.59;5171994;27;20068;-55
2022/11/01 10:06:35;;;;;;;18.83;6.10;;;;;;;9.02;100.00;98582.38;5171845;27;20560;-54
2022/11/01 10:09:08;;;;;;;17.83;6.63;;;;;;;9.06;100.00;98577.75;5171765;27;20062;-53
2022/11/01 10:11:53;;;;;;;26.92;8.23;;;;;;;9.14;100.00;98579.44;5171792;27;20042;-53
2022/11/01 10:14:34;;;;;;;19.73;5.75;;;;;;;9.16;100.00;98580.66;5171577;27;20088;-52
2022/11/01 10:17:11;;;;;;;13.18;4.95;;;;;;;8.84;100.00;98565.72;5171822;27;20092;-50
2022/11/01 10:19:40;;;;;;;13.52;5.22;;;;;;;8.65;100.00;98563.84;5171903;27;20141;-52
2022/11/01 10:22:13;;;;;;;22.10;6.18;;;;;;;8.55;100.00;98557.06;5171527;27;20530;-51
2022/11/01 10:24:45;;;;;;;13.73;5.50;;;;;;;8.48;100.00;98543.28;5172018;27;20077;-50
2022/11/01 10:27:19;;;;;;;22.25;5.47;;;;;;;8.45;100.00;98544.03;5171553;27;20088;-51
2022/11/01 10:29:51;;;;;;;14.93;4.97;;;;;;;8.42;100.00;98540.06;5171984;27;20572;-54
2022/11/01 10:32:27;;;;;;;17.20;6.05;;;;;;;8.78;100.00;98532.44;5171861;27;20046;-51
2022/11/01 10:34:58;;;;;;;20.77;5.43;;;;;;;8.76;100.00;98531.22;5175272;27;20530;-52
2022/11/01 10:37:31;;;;;;;18.15;5.28;;;;;;;8.81;100.00;98531.69;5175656;27;20190;-49
2022/11/01 10:40:02;;;;;;;28.15;5.75;;;;;;;8.79;100.00;98525.81;5175376;27;20061;-52
2022/11/01 10:42:29;;;;;;;11.88;4.80;;;;;;;8.88;100.00;98533.75;5175419;27;20050;-49
2022/11/01 10:44:59;;;;;;;26.35;7.75;;;;;;;9.50;100.00;98542.41;5175040;27;20141;-49
2022/11/01 10:47:27;;;;;;;15.57;6.72;;;;;;;9.15;100.00;98545.44;5175505;27;20046;-51
2022/11/01 10:49:58;;;;;;;26.77;7.75;;;;;;;9.52;100.00;98563.91;5175172;27;20046;-49
2022/11/01 10:52:27;;;;;;;20.90;7.80;;;;;;;9.00;100.00;98557.34;5175374;27;20074;-49
2022/11/01 10:54:57;;;;;;;24.05;7.80;;;;;;;9.68;100.00;98575.44;5174987;27;20141;-50
2022/11/01 10:57:32;;;;;;;20.88;6.63;;;;;;;9.25;100.00;98583.09;5175223;27;20139;-48
2022/11/01 11:00:01;;;;;;;16.52;6.65;;;;;;;9.51;100.00;98589.69;5175040;27;20517;-49
2022/11/01 11:02:37;;;;;;;21.55;7.78;;;;;;;9.58;100.00;98581.56;5174876;27;20053;-49
2022/11/01 11:05:04;;;;;;;19.92;6.70;;;;;;;9.35;100.00;98565.25;5175108;27;20046;-49
2022/11/01 11:07:32;;;;;;;20.42;7.05;;;;;;;9.74;100.00;98570.44;5174652;27;20050;-50
2022/11/01 11:10:00;;;;;;;20.92;6.97;;;;;;;9.88;100.00;98563.16;5174726;27;20067;-49
2022/11/01 11:12:29;;;;;;;19.00;5.97;;;;;;;9.58;100.00;98567.88;5174892;27;20397;-52
2022/11/01 11:15:01;;;;;;;17.38;6.47;;;;;;;9.54;100.00;98589.75;5175106;27;20129;-50
2022/11/01 11:17:34;;;;;;;23.20;7.07;;;;;;;9.81;100.00;98567.75;5174559;27;20090;-52
2022/11/01 11:20:03;;;;;;;12.73;5.40;;;;;;;9.57;100.00;98569.84;5174398;27;20042;-50
2022/11/01 11:22:30;;;;;;;19.60;6.15;;;;;;;9.30;100.00;98552.69;5174532;27;20280;-49
2022/11/01 11:24:58;;;;;;;18.25;5.47;;;;;;;9.00;100.00;98538.19;5174219;27;20473;-50
2022/11/01 11:27:28;;;;;;;13.00;5.22;;;;;;;8.83;100.00;98531.31;5174828;27;20046;-50
2022/11/01 11:29:57;;;;;;;14.32;5.38;;;;;;;8.87;100.00;98519.31;5174519;27;20414;-51
2022/11/01 11:32:25;;;;;;;16.08;5.15;;;;;;;8.89;100.00;98513.44;5174863;27;20042;-51